Avon, Connecticut
Current Conditions -  °F | °C
As of 10:53 AM on Sunday 25 Jan 2015 (Local Time) from KHFD Reporting Station
Clear Clear  
Wind Chill: 30°   Ceiling: Unl
Heat Index: 37°   Visibility: 10mi
Dew Point: 18°   Wind: 9mph
Humidity: 46%   Direction: 300°WNW
Pressure: 29.7"   Gusts: 23mph
Location:  41.81°N, 72.83°W
Report Text: KHFD 251553Z 30008G20KT 260V330 10SM CLR 03/M08 A2970 RMK AO2 SLP057 T00281078
Loading
Personal Weather Stations






























Interactive Weather Map New forecast layout! Learn more

10-Day Weather Forecast

Advertisements
Track Severe Weather on mobile